Time;durP1;ratioP1;P1;durP2;ratioP2;P2;SDS_P1;SDS_P2;PMS_P1;PMS_P2;Temp;Humidity;BMP_temperature;BMP_pressure;BME280_temperature;BME280_humidity;BME280_pressure;Samples;Min_cycle;Max_cycle;Signal;HPM_P1;HPM_P2
2021/03/14 00:00:45;;;;;;;94.03;89.68;;;4.30;99.90;;;;;;5011631;28;20029;-71
2021/03/14 00:03:12;;;;;;;30.27;28.50;;;4.20;99.90;;;;;;5001106;28;20026;-72
2021/03/14 00:05:40;;;;;;;35.65;33.72;;;4.30;99.90;;;;;;5026803;28;20017;-71
2021/03/14 00:08:07;;;;;;;53.45;50.40;;;4.30;99.90;;;;;;5021916;28;20071;-71
2021/03/14 00:10:32;;;;;;;18.48;17.25;;;4.30;99.90;;;;;;5017606;28;20093;-71
2021/03/14 00:12:58;;;;;;;13.98;12.77;;;4.20;99.90;;;;;;5020483;28;20029;-71
2021/03/14 00:15:24;;;;;;;19.90;18.65;;;4.30;99.90;;;;;;5020023;28;20040;-71
2021/03/14 00:17:50;;;;;;;76.53;73.13;;;4.20;99.90;;;;;;5033172;28;20061;-71
2021/03/14 00:20:17;;;;;;;34.10;32.15;;;4.20;99.90;;;;;;5019805;28;20084;-71
2021/03/14 00:22:43;;;;;;;17.63;16.50;;;4.30;99.90;;;;;;5022570;28;20029;-71
2021/03/14 00:25:09;;;;;;;85.65;81.75;;;4.30;99.90;;;;;;5025493;28;20033;-71
2021/03/14 00:27:35;;;;;;;25.40;24.05;;;4.30;99.90;;;;;;5023054;28;20013;-72
2021/03/14 00:30:01;;;;;;;13.95;13.23;;;4.30;99.90;;;;;;5013210;28;20031;-72
2021/03/14 00:32:27;;;;;;;11.00;10.07;;;4.30;99.90;;;;;;5021993;28;20017;-72
2021/03/14 00:34:52;;;;;;;20.80;19.45;;;4.30;99.90;;;;;;5019493;28;20029;-72
2021/03/14 00:37:18;;;;;;;25.30;24.08;;;4.30;99.90;;;;;;5023190;28;20026;-72
2021/03/14 00:39:44;;;;;;;20.38;19.30;;;4.40;99.90;;;;;;5016138;28;20029;-72
2021/03/14 00:42:10;;;;;;;17.95;16.85;;;4.20;99.90;;;;;;5023138;28;20084;-72
2021/03/14 00:44:35;;;;;;;13.40;12.60;;;4.30;99.90;;;;;;5025987;28;20030;-70
2021/03/14 00:47:01;;;;;;;13.43;12.55;;;4.30;99.90;;;;;;5022119;28;20728;-70
2021/03/14 00:49:27;;;;;;;9.38;8.70;;;4.30;99.90;;;;;;5019317;28;20025;-71
2021/03/14 00:51:52;;;;;;;12.25;11.48;;;4.30;99.90;;;;;;5023024;28;20034;-71
2021/03/14 00:54:18;;;;;;;71.85;68.85;;;4.20;99.90;;;;;;5024654;28;20372;-71
2021/03/14 00:56:44;;;;;;;102.85;98.40;;;4.20;99.90;;;;;;5012758;28;20034;-70
2021/03/14 00:59:10;;;;;;;77.93;74.40;;;4.20;99.90;;;;;;5015370;28;20398;-71
2021/03/14 01:01:36;;;;;;;49.15;46.90;;;4.10;99.90;;;;;;5022768;28;20124;-71
2021/03/14 01:04:01;;;;;;;93.38;89.40;;;4.00;99.90;;;;;;5028586;28;20021;-71
2021/03/14 01:06:27;;;;;;;89.15;85.20;;;4.00;99.90;;;;;;5022786;28;20022;-71
2021/03/14 01:08:53;;;;;;;101.45;96.97;;;3.90;99.90;;;;;;5025416;28;20034;-72
2021/03/14 01:11:19;;;;;;;90.88;86.72;;;4.00;99.90;;;;;;5021546;28;20135;-70
2021/03/14 01:13:45;;;;;;;63.58;60.78;;;4.00;99.90;;;;;;5018833;28;20061;-71
2021/03/14 01:16:11;;;;;;;45.30;43.10;;;4.00;99.90;;;;;;5022859;28;20037;-71
2021/03/14 01:18:36;;;;;;;43.95;41.92;;;3.90;99.90;;;;;;5024055;28;20040;-71
2021/03/14 01:21:03;;;;;;;43.60;41.50;;;3.90;99.90;;;;;;5021555;28;20753;-71
2021/03/14 01:23:28;;;;;;;23.55;22.00;;;4.00;99.90;;;;;;5018722;28;20033;-71
2021/03/14 01:25:54;;;;;;;17.85;16.83;;;4.00;99.90;;;;;;5022445;28;20030;-70
2021/03/14 01:28:19;;;;;;;27.80;26.35;;;3.90;99.90;;;;;;5025545;28;20037;-70
2021/03/14 01:30:45;;;;;;;91.43;87.38;;;3.90;99.90;;;;;;5010823;28;20026;-70
2021/03/14 01:33:10;;;;;;;111.40;106.55;;;3.90;99.90;;;;;;5024253;28;20411;-70
2021/03/14 01:35:36;;;;;;;44.05;41.90;;;3.90;99.90;;;;;;5021222;28;20042;-71
2021/03/14 01:38:03;;;;;;;62.80;60.10;;;3.80;99.90;;;;;;5017190;28;20072;-71
2021/03/14 01:40:29;;;;;;;97.15;92.93;;;3.80;99.90;;;;;;5021086;28;20037;-70
2021/03/14 01:42:54;;;;;;;53.45;51.13;;;3.70;99.90;;;;;;5013428;28;20487;-71
2021/03/14 01:45:20;;;;;;;102.95;98.53;;;3.70;99.90;;;;;;5022402;28;20361;-72
2021/03/14 01:47:49;;;;;;;71.18;68.00;;;3.70;99.90;;;;;;5024011;28;20087;-73
2021/03/14 01:50:17;;;;;;;74.95;71.43;;;3.80;99.90;;;;;;5021957;28;20022;-73
2021/03/14 01:52:44;;;;;;;57.72;55.03;;;3.70;99.90;;;;;;5018483;28;20111;-72
2021/03/14 01:55:10;;;;;;;44.47;42.40;;;3.70;99.90;;;;;;5021464;28;20713;-73
2021/03/14 01:57:37;;;;;;;90.32;86.55;;;3.70;99.90;;;;;;5018747;28;20491;-73
2021/03/14 02:00:12;;;;;;;68.80;65.72;;;3.60;99.90;;;;;;5024923;28;20057;-72
2021/03/14 02:02:37;;;;;;;57.17;54.40;;;3.60;99.90;;;;;;5034281;28;20386;-70
2021/03/14 02:05:08;;;;;;;94.50;90.38;;;3.70;99.90;;;;;;5022474;28;20026;-71
2021/03/14 02:07:38;;;;;;;91.13;86.93;;;3.50;99.90;;;;;;5029174;28;20021;-71
2021/03/14 02:10:05;;;;;;;71.00;67.72;;;3.60;99.90;;;;;;5027435;28;20033;-73
2021/03/14 02:12:36;;;;;;;99.28;94.90;;;3.60;99.90;;;;;;5015700;28;20033;-71
2021/03/14 02:15:03;;;;;;;108.88;103.95;;;3.60;99.90;;;;;;5029083;28;20018;-69
2021/03/14 02:17:33;;;;;;;98.30;94.13;;;3.60;99.90;;;;;;5022631;28;20017;-70
2021/03/14 02:20:07;;;;;;;71.28;67.93;;;3.60;99.90;;;;;;5021952;28;20472;-71
2021/03/14 02:22:33;;;;;;;93.45;89.32;;;3.70;99.90;;;;;;5026483;28;20046;-72
2021/03/14 02:25:01;;;;;;;113.78;108.85;;;3.60;99.90;;;;;;5030627;28;20118;-72
2021/03/14 02:27:27;;;;;;;76.95;73.57;;;3.60;99.90;;;;;;5026597;28;20049;-72
2021/03/14 02:29:54;;;;;;;71.43;68.32;;;3.70;99.90;;;;;;5027403;28;20060;-73
2021/03/14 02:32:21;;;;;;;45.55;43.50;;;3.60;99.90;;;;;;5015318;28;20025;-71
2021/03/14 02:34:53;;;;;;;102.32;97.93;;;3.60;99.90;;;;;;5028656;28;20036;-72
2021/03/14 02:37:21;;;;;;;84.40;80.57;;;3.60;99.90;;;;;;5024905;28;20022;-73
2021/03/14 02:39:47;;;;;;;70.75;67.65;;;3.60;99.90;;;;;;5021667;28;20028;-72
2021/03/14 02:42:14;;;;;;;62.65;59.95;;;3.60;99.90;;;;;;5025065;28;20033;-73
2021/03/14 02:44:47;;;;;;;65.75;62.83;;;3.60;99.90;;;;;;5028575;28;20022;-73
2021/03/14 02:47:13;;;;;;;77.55;74.07;;;3.80;99.90;;;;;;5025677;28;20047;-71
2021/03/14 02:49:39;;;;;;;67.50;64.55;;;3.60;99.90;;;;;;5021556;28;20641;-72
2021/03/14 02:52:05;;;;;;;56.00;53.50;;;3.60;99.90;;;;;;5024034;28;20109;-73
2021/03/14 02:54:33;;;;;;;89.47;85.32;;;3.50;99.90;;;;;;5005745;28;20120;-73
2021/03/14 02:57:00;;;;;;;81.15;77.57;;;3.50;99.90;;;;;;5022397;28;20030;-73
2021/03/14 02:59:26;;;;;;;97.63;93.30;;;3.60;99.90;;;;;;5026818;28;20080;-73
2021/03/14 03:01:52;;;;;;;95.68;91.30;;;3.50;99.90;;;;;;5013375;28;20029;-72
2021/03/14 03:04:21;;;;;;;101.57;96.90;;;3.50;99.90;;;;;;5019177;28;20028;-72
2021/03/14 03:06:47;;;;;;;85.63;81.85;;;3.50;99.90;;;;;;5023252;28;20105;-73
2021/03/14 03:09:14;;;;;;;75.97;72.63;;;3.50;99.90;;;;;;5019431;28;20069;-71
2021/03/14 03:11:41;;;;;;;62.53;59.70;;;3.50;99.90;;;;;;5021499;28;20030;-71
2021/03/14 03:14:11;;;;;;;54.72;52.20;;;3.50;99.90;;;;;;5026536;28;20503;-72
2021/03/14 03:16:37;;;;;;;117.25;112.07;;;3.50;99.90;;;;;;5014634;28;20034;-72
2021/03/14 03:19:03;;;;;;;106.65;101.80;;;3.50;99.90;;;;;;5027598;28;20064;-71
2021/03/14 03:21:28;;;;;;;105.70;101.03;;;3.50;99.90;;;;;;5026383;28;20033;-72
2021/03/14 03:23:54;;;;;;;75.05;71.57;;;3.40;99.90;;;;;;5029004;28;20034;-71
2021/03/14 03:26:20;;;;;;;90.20;85.85;;;3.50;99.90;;;;;;5013119;28;20349;-71
2021/03/14 03:28:48;;;;;;;81.88;77.97;;;3.40;99.90;;;;;;5014258;28;20029;-71
2021/03/14 03:31:14;;;;;;;110.30;104.97;;;3.30;99.90;;;;;;5027162;28;20123;-71
2021/03/14 03:33:39;;;;;;;93.18;88.95;;;3.30;99.90;;;;;;5026391;28;20488;-71
2021/03/14 03:36:05;;;;;;;115.65;110.57;;;3.30;99.90;;;;;;5026986;28;20103;-71
2021/03/14 03:38:35;;;;;;;107.20;102.45;;;3.30;99.90;;;;;;5027742;28;20038;-71
2021/03/14 03:41:01;;;;;;;99.50;95.05;;;3.30;99.90;;;;;;5026887;28;20037;-70
2021/03/14 03:43:37;;;;;;;84.43;80.68;;;3.30;99.90;;;;;;5005980;28;20391;-71
2021/03/14 03:46:07;;;;;;;80.32;76.60;;;3.20;99.90;;;;;;5020523;28;20024;-71
2021/03/14 03:48:46;;;;;;;115.30;110.07;;;3.20;99.90;;;;;;5025217;28;20050;-71
2021/03/14 03:51:14;;;;;;;94.50;90.15;;;3.20;99.90;;;;;;5025746;28;20113;-71
2021/03/14 03:53:40;;;;;;;115.70;110.38;;;3.20;99.90;;;;;;5024200;28;20535;-72
2021/03/14 03:56:07;;;;;;;110.45;105.30;;;3.20;99.90;;;;;;5012767;28;20543;-71
2021/03/14 03:58:33;;;;;;;97.05;92.63;;;3.20;99.90;;;;;;5004390;28;20033;-72
2021/03/14 04:01:01;;;;;;;87.18;83.25;;;3.40;99.90;;;;;;5025562;28;20065;-72
2021/03/14 04:03:28;;;;;;;101.70;97.10;;;3.30;99.90;;;;;;5024384;28;20501;-71
2021/03/14 04:05:58;;;;;;;69.97;66.82;;;3.40;99.90;;;;;;5020032;28;20021;-71
2021/03/14 04:08:26;;;;;;;75.43;72.03;;;3.40;99.90;;;;;;5020604;28;20059;-72
2021/03/14 04:10:53;;;;;;;72.53;69.22;;;3.40;99.90;;;;;;5025397;28;20125;-72
2021/03/14 04:13:20;;;;;;;70.13;66.85;;;3.40;99.90;;;;;;5025114;28;20418;-71
2021/03/14 04:15:46;;;;;;;89.90;85.80;;;3.40;99.90;;;;;;5019990;28;20467;-72
2021/03/14 04:18:12;;;;;;;114.97;109.90;;;3.40;99.90;;;;;;5021394;28;20030;-71
2021/03/14 04:20:40;;;;;;;80.78;76.85;;;3.50;99.90;;;;;;5025726;28;20033;-71
2021/03/14 04:23:20;;;;;;;100.70;96.10;;;3.40;99.90;;;;;;5013232;28;20076;-71
2021/03/14 04:25:53;;;;;;;112.68;107.72;;;3.40;99.90;;;;;;5002075;28;20018;-72
2021/03/14 04:28:20;;;;;;;97.32;92.88;;;3.30;99.90;;;;;;5026298;28;20018;-71
2021/03/14 04:30:46;;;;;;;86.63;82.55;;;3.30;99.90;;;;;;5022638;28;20072;-72
2021/03/14 04:33:12;;;;;;;104.68;99.78;;;3.30;99.90;;;;;;5028597;28;20030;-72
2021/03/14 04:35:42;;;;;;;70.45;67.00;;;3.30;99.90;;;;;;5022654;28;20030;-72
2021/03/14 04:38:08;;;;;;;86.72;82.60;;;3.50;99.90;;;;;;5019814;28;20026;-70
2021/03/14 04:40:35;;;;;;;75.10;71.55;;;3.30;99.90;;;;;;5033005;28;20029;-70
2021/03/14 04:43:02;;;;;;;102.68;98.03;;;3.30;99.90;;;;;;5016306;28;20034;-72
2021/03/14 04:45:28;;;;;;;84.20;80.30;;;3.30;99.90;;;;;;5022941;28;20108;-70
2021/03/14 04:47:54;;;;;;;96.47;91.68;;;3.20;99.90;;;;;;5018147;28;20120;-69
2021/03/14 04:50:22;;;;;;;71.13;67.78;;;3.20;99.90;;;;;;5022516;28;20490;-71
2021/03/14 04:52:51;;;;;;;87.60;83.40;;;3.20;99.90;;;;;;5025771;28;20471;-70
2021/03/14 04:55:17;;;;;;;85.43;81.50;;;3.20;99.90;;;;;;5023868;28;20021;-71
2021/03/14 04:57:44;;;;;;;109.95;104.95;;;3.20;99.90;;;;;;5019395;28;20440;-70
2021/03/14 05:00:12;;;;;;;89.97;85.82;;;3.20;99.90;;;;;;5021016;28;20041;-70
2021/03/14 05:02:41;;;;;;;93.25;88.97;;;3.20;99.90;;;;;;5025846;28;20053;-71
2021/03/14 05:05:09;;;;;;;100.20;95.35;;;3.20;99.90;;;;;;5024279;28;20053;-70
2021/03/14 05:07:36;;;;;;;108.65;103.57;;;3.10;99.90;;;;;;5019115;28;20060;-71
2021/03/14 05:10:04;;;;;;;100.32;95.55;;;3.00;99.90;;;;;;5020114;28;20030;-71
2021/03/14 05:12:30;;;;;;;121.95;116.03;;;2.80;99.90;;;;;;5025288;28;20030;-72
2021/03/14 05:14:56;;;;;;;133.73;127.30;;;2.80;99.90;;;;;;5012533;28;20044;-72
2021/03/14 05:17:23;;;;;;;129.02;123.03;;;2.80;99.90;;;;;;5031305;28;20506;-71
2021/03/14 05:19:49;;;;;;;130.30;123.95;;;2.80;99.90;;;;;;5018429;28;20026;-70
2021/03/14 05:22:19;;;;;;;136.73;130.32;;;2.80;99.90;;;;;;5025227;28;20369;-70
2021/03/14 05:24:47;;;;;;;147.43;140.43;;;2.80;99.90;;;;;;5025309;28;20478;-71
2021/03/14 05:27:13;;;;;;;129.50;123.20;;;2.90;99.90;;;;;;5019066;28;20534;-71
2021/03/14 05:29:38;;;;;;;140.13;133.25;;;2.90;99.90;;;;;;5018516;28;20113;-71
2021/03/14 05:32:04;;;;;;;122.65;116.85;;;2.90;99.90;;;;;;5016478;28;20074;-71
2021/03/14 05:34:30;;;;;;;121.28;115.55;;;2.90;99.90;;;;;;5018727;28;20041;-70
2021/03/14 05:36:55;;;;;;;117.15;111.63;;;3.00;99.90;;;;;;5025070;28;20080;-71
2021/03/14 05:39:21;;;;;;;131.45;125.32;;;3.00;99.90;;;;;;5023807;28;20610;-69
2021/03/14 05:41:46;;;;;;;144.15;137.38;;;3.00;99.90;;;;;;5004993;28;20023;-70
2021/03/14 05:44:13;;;;;;;130.85;124.28;;;3.00;99.90;;;;;;5006046;28;20028;-70
2021/03/14 05:46:39;;;;;;;149.32;142.25;;;2.90;99.90;;;;;;5024935;28;20065;-70
2021/03/14 05:49:06;;;;;;;125.70;119.75;;;3.00;99.90;;;;;;5025377;28;20029;-70
2021/03/14 05:51:34;;;;;;;161.00;153.38;;;2.90;99.90;;;;;;5018823;28;20060;-69
2021/03/14 05:54:00;;;;;;;142.30;135.25;;;3.00;99.90;;;;;;5018593;28;20061;-69
2021/03/14 05:56:27;;;;;;;125.72;119.50;;;2.90;99.90;;;;;;5024390;28;20034;-69
2021/03/14 05:58:54;;;;;;;135.20;128.52;;;2.90;99.90;;;;;;5024945;28;20033;-70
2021/03/14 06:01:29;;;;;;;134.20;127.68;;;3.00;99.90;;;;;;5004460;28;20109;-69
2021/03/14 06:03:56;;;;;;;134.30;127.88;;;2.90;99.90;;;;;;5022626;28;20021;-69
2021/03/14 06:06:22;;;;;;;127.45;121.28;;;2.90;99.90;;;;;;5022974;28;20388;-69
2021/03/14 06:08:47;;;;;;;123.35;117.38;;;3.00;99.90;;;;;;5012161;28;20026;-70
2021/03/14 06:11:13;;;;;;;140.32;133.48;;;3.00;99.90;;;;;;5022157;28;20018;-70
2021/03/14 06:13:40;;;;;;;146.13;139.38;;;3.00;99.90;;;;;;5024385;28;20029;-70
2021/03/14 06:16:07;;;;;;;149.88;142.88;;;3.20;99.90;;;;;;5020258;28;20100;-70
2021/03/14 06:18:34;;;;;;;104.05;98.95;;;3.10;99.90;;;;;;5014649;28;20137;-71
2021/03/14 06:21:03;;;;;;;67.03;63.55;;;3.00;99.90;;;;;;5020339;28;20040;-71
2021/03/14 06:23:29;;;;;;;114.72;109.10;;;3.10;99.90;;;;;;5027301;28;20060;-72
2021/03/14 06:25:56;;;;;;;119.10;113.35;;;3.10;99.90;;;;;;5011533;28;20030;-71
2021/03/14 06:28:35;;;;;;;136.65;130.20;;;3.10;99.90;;;;;;5011445;28;20026;-71
2021/03/14 06:31:18;;;;;;;115.80;110.57;;;3.10;99.90;;;;;;5014088;28;20060;-71
2021/03/14 06:33:44;;;;;;;152.65;145.27;;;3.10;99.90;;;;;;5014126;28;20036;-71
2021/03/14 06:36:19;;;;;;;155.45;148.38;;;3.10;99.90;;;;;;5011460;28;20055;-70
2021/03/14 06:38:45;;;;;;;139.60;133.25;;;3.10;99.90;;;;;;5010207;28;20109;-70
2021/03/14 06:41:12;;;;;;;140.63;134.20;;;3.10;99.90;;;;;;4999855;28;20022;-70
2021/03/14 06:43:55;;;;;;;102.95;98.07;;;3.10;99.90;;;;;;5033731;28;20518;-70
2021/03/14 06:46:27;;;;;;;135.13;128.95;;;3.10;99.90;;;;;;5015863;28;20034;-71
2021/03/14 06:49:14;;;;;;;129.50;123.35;;;3.10;99.90;;;;;;5015044;28;20022;-71
2021/03/14 06:51:44;;;;;;;144.52;137.95;;;3.20;99.90;;;;;;5005841;28;20026;-71
2021/03/14 06:54:26;;;;;;;143.77;137.20;;;3.20;99.90;;;;;;5008474;28;20029;-71
2021/03/14 06:56:58;;;;;;;127.38;121.40;;;3.20;99.90;;;;;;5005796;28;20026;-70
2021/03/14 06:59:24;;;;;;;129.07;123.22;;;3.20;99.90;;;;;;5014381;28;20028;-71
2021/03/14 07:02:07;;;;;;;113.82;108.53;;;3.20;99.90;;;;;;5014419;28;20021;-71
2021/03/14 07:04:44;;;;;;;105.13;99.97;;;3.20;99.90;;;;;;5007716;28;20041;-70
2021/03/14 07:07:24;;;;;;;121.72;116.20;;;3.30;99.90;;;;;;5010021;28;20022;-70
2021/03/14 07:09:54;;;;;;;130.15;124.15;;;3.30;99.90;;;;;;5014509;28;20036;-70
2021/03/14 07:12:24;;;;;;;111.95;106.85;;;3.30;99.90;;;;;;5027665;28;20048;-71
2021/03/14 07:14:50;;;;;;;105.65;100.78;;;3.30;99.90;;;;;;5014418;28;20022;-70
2021/03/14 07:17:34;;;;;;;102.18;97.53;;;3.40;99.90;;;;;;5027824;28;20080;-70
2021/03/14 07:20:05;;;;;;;122.90;117.30;;;3.40;99.90;;;;;;5015096;28;20029;-71
2021/03/14 07:22:31;;;;;;;128.70;122.80;;;3.40;99.90;;;;;;5033905;28;20033;-71
2021/03/14 07:24:57;;;;;;;112.53;107.18;;;3.50;99.90;;;;;;5032440;28;20100;-71
2021/03/14 07:27:25;;;;;;;108.93;103.32;;;3.70;99.90;;;;;;5014247;28;20096;-70
2021/03/14 07:29:54;;;;;;;140.68;133.50;;;3.60;99.90;;;;;;5014481;28;20026;-70
2021/03/14 07:32:20;;;;;;;104.82;99.93;;;3.60;99.90;;;;;;5016891;28;20503;-70
2021/03/14 07:34:46;;;;;;;91.00;86.82;;;3.70;99.90;;;;;;5013652;28;20030;-69
2021/03/14 07:37:12;;;;;;;107.88;102.80;;;3.70;99.90;;;;;;5014485;28;20420;-70
2021/03/14 07:39:37;;;;;;;84.35;80.35;;;3.90;99.90;;;;;;5017400;28;20476;-70
2021/03/14 07:42:04;;;;;;;58.67;55.78;;;3.90;99.90;;;;;;5017374;28;20129;-71
2021/03/14 07:44:30;;;;;;;91.95;87.43;;;4.00;99.90;;;;;;5015172;28;20029;-71
2021/03/14 07:46:56;;;;;;;60.03;56.70;;;4.00;99.90;;;;;;5013322;28;20018;-70
2021/03/14 07:49:24;;;;;;;44.83;42.58;;;4.10;99.90;;;;;;5013514;28;20101;-71
2021/03/14 07:51:51;;;;;;;86.65;82.53;;;4.00;99.90;;;;;;5023031;28;20029;-70
2021/03/14 07:54:23;;;;;;;77.80;73.97;;;4.00;99.90;;;;;;5032306;28;20032;-70
2021/03/14 07:56:52;;;;;;;60.60;57.63;;;4.00;99.90;;;;;;5023082;28;20022;-70
2021/03/14 07:59:24;;;;;;;59.35;56.38;;;4.00;99.90;;;;;;5012069;28;20698;-70
2021/03/14 08:01:50;;;;;;;38.47;36.53;;;4.10;99.90;;;;;;5023276;28;20044;-70
2021/03/14 08:04:30;;;;;;;38.55;36.53;;;4.00;99.90;;;;;;5014957;28;20034;-70
2021/03/14 08:06:55;;;;;;;45.47;42.90;;;4.10;99.90;;;;;;5026932;28;20022;-70
2021/03/14 08:09:40;;;;;;;70.15;66.88;;;3.80;99.90;;;;;;5032818;28;20395;-70
2021/03/14 08:12:23;;;;;;;82.40;78.43;;;3.80;99.90;;;;;;5016562;28;20022;-70
2021/03/14 08:14:53;;;;;;;63.28;60.00;;;3.60;99.90;;;;;;5013156;28;20021;-70
2021/03/14 08:17:24;;;;;;;71.70;68.22;;;3.40;99.90;;;;;;5032221;28;20032;-70
2021/03/14 08:19:51;;;;;;;102.00;96.95;;;3.30;99.90;;;;;;5032737;28;20521;-69
2021/03/14 08:22:38;;;;;;;94.30;89.43;;;3.20;99.90;;;;;;5032535;28;20033;-70
2021/03/14 08:25:27;;;;;;;118.40;112.32;;;3.30;99.90;;;;;;5016411;28;20048;-70
2021/03/14 08:27:59;;;;;;;110.03;104.53;;;3.40;99.90;;;;;;5012893;28;20104;-70
2021/03/14 08:30:42;;;;;;;121.07;114.95;;;3.60;99.90;;;;;;5025927;28;20028;-70
2021/03/14 08:33:17;;;;;;;128.27;122.07;;;3.70;99.90;;;;;;5012974;28;20057;-70
2021/03/14 08:35:54;;;;;;;133.57;126.93;;;3.90;99.90;;;;;;5021813;28;20025;-70
2021/03/14 08:38:29;;;;;;;110.68;105.25;;;4.00;99.90;;;;;;5027550;28;20503;-70
2021/03/14 08:41:22;;;;;;;23.98;22.55;;;4.20;99.90;;;;;;5012408;28;20026;-70
2021/03/14 08:44:09;;;;;;;102.70;97.70;;;4.10;99.90;;;;;;5011628;28;20033;-69
2021/03/14 08:46:57;;;;;;;97.68;93.18;;;4.00;99.90;;;;;;5030630;28;20427;-71
2021/03/14 08:49:24;;;;;;;37.60;35.40;;;4.10;99.90;;;;;;5030828;28;20021;-71
2021/03/14 08:51:51;;;;;;;103.75;98.85;;;4.20;99.90;;;;;;5023145;28;20036;-70
2021/03/14 08:54:39;;;;;;;76.22;72.60;;;4.40;99.90;;;;;;5014850;28;20117;-70
2021/03/14 08:57:07;;;;;;;26.48;24.88;;;4.30;99.90;;;;;;5019894;28;20033;-70
2021/03/14 08:59:33;;;;;;;47.65;45.25;;;4.30;99.90;;;;;;5029183;28;20044;-70
2021/03/14 09:02:00;;;;;;;35.42;33.63;;;4.40;99.90;;;;;;5031179;28;20022;-70
2021/03/14 09:04:31;;;;;;;10.45;9.55;;;4.40;99.90;;;;;;5012702;28;20481;-70
2021/03/14 09:07:02;;;;;;;20.30;19.13;;;4.40;99.90;;;;;;5012032;28;20026;-71
2021/03/14 09:09:27;;;;;;;15.20;14.13;;;4.40;99.90;;;;;;5031848;28;20575;-71
2021/03/14 09:11:58;;;;;;;17.52;16.42;;;4.30;99.90;;;;;;5031636;28;20108;-70
2021/03/14 09:14:27;;;;;;;5.53;4.80;;;4.40;99.90;;;;;;5030711;28;20029;-70
2021/03/14 09:16:59;;;;;;;45.75;43.50;;;4.60;99.90;;;;;;5017044;28;20487;-70
2021/03/14 09:19:43;;;;;;;18.45;17.08;;;4.60;99.90;;;;;;5012073;28;20032;-70
2021/03/14 09:22:14;;;;;;;14.05;13.13;;;4.70;99.90;;;;;;5010416;28;20496;-70
2021/03/14 09:24:44;;;;;;;11.88;11.13;;;4.70;99.90;;;;;;5023853;28;20033;-70
2021/03/14 09:27:13;;;;;;;4.97;4.45;;;4.70;99.90;;;;;;4998668;28;20471;-70
2021/03/14 09:29:46;;;;;;;8.85;8.05;;;4.60;99.90;;;;;;5024822;28;20030;-70
2021/03/14 09:32:24;;;;;;;7.10;6.40;;;4.70;99.90;;;;;;5016025;28;20550;-70
2021/03/14 09:34:51;;;;;;;16.83;15.80;;;4.70;99.90;;;;;;5011775;28;20030;-70
2021/03/14 09:37:29;;;;;;;22.58;21.27;;;4.60;99.90;;;;;;5011814;28;20404;-70
2021/03/14 09:40:16;;;;;;;6.10;5.57;;;4.60;99.90;;;;;;5023515;28;20076;-70
2021/03/14 09:42:47;;;;;;;11.40;10.60;;;4.60;99.90;;;;;;5024646;28;20134;-70
2021/03/14 09:45:14;;;;;;;16.83;15.75;;;4.60;99.90;;;;;;5020146;28;20030;-71
2021/03/14 09:48:09;;;;;;;36.17;34.08;;;4.50;99.90;;;;;;5031313;28;20025;-70
2021/03/14 09:50:52;;;;;;;46.70;44.40;;;4.60;99.90;;;;;;5031368;28;20018;-71
2021/03/14 09:53:19;;;;;;;35.90;33.67;;;4.70;99.90;;;;;;5023251;28;20018;-69
2021/03/14 09:55:47;;;;;;;31.38;29.75;;;4.70;99.90;;;;;;5016468;28;20018;-70
2021/03/14 09:58:15;;;;;;;20.55;19.13;;;4.70;99.90;;;;;;5020006;28;20022;-70
2021/03/14 10:00:42;;;;;;;9.30;8.63;;;4.80;99.90;;;;;;5015872;28;20372;-71
2021/03/14 10:03:11;;;;;;;9.93;8.95;;;4.70;99.90;;;;;;5002985;28;20050;-70
2021/03/14 10:05:38;;;;;;;7.07;6.50;;;4.70;99.90;;;;;;5004025;28;20404;-70
2021/03/14 10:08:04;;;;;;;6.45;4.80;;;4.70;99.90;;;;;;5000713;28;20357;-70
2021/03/14 10:10:30;;;;;;;10.52;9.65;;;4.70;99.90;;;;;;5026686;28;20033;-70
2021/03/14 10:12:56;;;;;;;25.80;24.33;;;4.80;99.90;;;;;;5022393;28;20522;-71
2021/03/14 10:15:22;;;;;;;34.97;33.03;;;5.10;99.90;;;;;;5010222;28;20110;-70
2021/03/14 10:17:48;;;;;;;31.77;29.92;;;5.10;99.90;;;;;;5012885;28;20118;-70
2021/03/14 10:20:18;;;;;;;44.22;42.05;;;5.20;99.90;;;;;;5015161;28;20025;-70
2021/03/14 10:22:44;;;;;;;35.15;33.33;;;5.40;99.90;;;;;;5024547;28;20039;-70
2021/03/14 10:25:22;;;;;;;9.43;6.93;;;5.40;99.90;;;;;;5031481;28;20022;-71
2021/03/14 10:27:49;;;;;;;5.40;4.90;;;5.70;99.90;;;;;;5014232;28;20096;-71
2021/03/14 10:30:17;;;;;;;5.35;4.13;;;5.70;99.90;;;;;;5033245;28;20028;-70
2021/03/14 10:32:46;;;;;;;5.75;4.60;;;5.80;99.90;;;;;;5034606;28;20584;-70
2021/03/14 10:35:11;;;;;;;7.40;4.22;;;5.80;99.90;;;;;;5034906;28;20033;-70
2021/03/14 10:37:39;;;;;;;6.35;3.50;;;5.80;99.90;;;;;;5022320;28;20030;-70
2021/03/14 10:40:13;;;;;;;4.13;3.08;;;5.70;99.90;;;;;;5034161;28;20021;-70
2021/03/14 10:42:50;;;;;;;5.68;3.83;;;5.70;99.90;;;;;;5020384;28;20022;-70
2021/03/14 10:45:18;;;;;;;7.20;3.55;;;5.60;99.90;;;;;;5014881;28;20060;-69
2021/03/14 10:47:46;;;;;;;4.90;3.58;;;5.80;99.90;;;;;;5004089;28;20031;-69
2021/03/14 10:50:19;;;;;;;7.22;4.13;;;5.90;99.90;;;;;;5025247;28;20018;-70
2021/03/14 10:53:04;;;;;;;3.90;3.58;;;5.90;99.90;;;;;;5014546;28;20120;-70
2021/03/14 10:55:30;;;;;;;7.55;3.58;;;5.60;99.90;;;;;;5014692;28;20014;-70
2021/03/14 10:58:16;;;;;;;7.68;3.47;;;5.60;99.90;;;;;;5021145;28;20101;-70
2021/03/14 11:00:48;;;;;;;4.97;4.40;;;5.70;99.90;;;;;;5034091;28;20029;-70
2021/03/14 11:03:28;;;;;;;6.50;3.88;;;5.70;99.90;;;;;;5034335;28;20099;-70
2021/03/14 11:06:12;;;;;;;7.00;4.20;;;5.80;99.90;;;;;;5034186;28;20044;-70
2021/03/14 11:09:03;;;;;;;5.05;3.13;;;6.00;99.90;;;;;;5019680;28;20556;-70
2021/03/14 11:11:45;;;;;;;5.07;3.22;;;6.10;99.90;;;;;;5025481;28;20030;-69
2021/03/14 11:14:32;;;;;;;4.63;3.08;;;6.20;99.90;;;;;;5001222;28;20029;-70
2021/03/14 11:17:13;;;;;;;8.98;4.00;;;6.30;99.90;;;;;;5030268;28;20025;-70
2021/03/14 11:19:44;;;;;;;4.75;3.38;;;6.40;99.90;;;;;;5032563;28;20076;-70
2021/03/14 11:22:13;;;;;;;5.63;3.45;;;6.20;99.90;;;;;;5033694;28;20025;-70
2021/03/14 11:24:39;;;;;;;8.15;4.10;;;6.10;99.90;;;;;;5020075;28;20026;-70
2021/03/14 11:27:05;;;;;;;3.83;2.88;;;6.10;99.90;;;;;;5019839;28;20029;-70
2021/03/14 11:29:31;;;;;;;5.95;3.17;;;6.10;99.90;;;;;;5021218;28;20038;-69
2021/03/14 11:31:57;;;;;;;4.18;3.25;;;6.00;99.90;;;;;;5018036;28;20030;-70
2021/03/14 11:34:23;;;;;;;5.50;3.95;;;6.10;99.90;;;;;;5000219;28;20113;-70
2021/03/14 11:36:49;;;;;;;3.97;3.53;;;5.90;99.90;;;;;;5013374;28;20018;-69
2021/03/14 11:39:15;;;;;;;5.60;3.40;;;6.00;99.90;;;;;;5026603;28;20025;-70
2021/03/14 11:41:41;;;;;;;7.50;3.42;;;6.10;99.90;;;;;;5033161;28;20068;-70
2021/03/14 11:44:07;;;;;;;4.95;3.40;;;6.10;99.90;;;;;;5033590;28;20056;-70
2021/03/14 11:46:33;;;;;;;3.47;2.65;;;6.00;99.90;;;;;;5014000;28;20096;-70
2021/03/14 11:48:59;;;;;;;6.85;3.03;;;6.00;99.90;;;;;;5026432;28;20087;-69
2021/03/14 11:51:25;;;;;;;4.38;3.42;;;6.10;99.90;;;;;;5033021;28;20033;-70
2021/03/14 11:53:50;;;;;;;8.07;4.97;;;6.00;99.90;;;;;;5033308;28;20032;-69
2021/03/14 11:56:16;;;;;;;4.15;2.70;;;6.00;99.90;;;;;;5027346;28;20494;-69
2021/03/14 11:58:42;;;;;;;7.15;3.25;;;6.10;99.90;;;;;;5001367;28;20034;-70
2021/03/14 12:01:08;;;;;;;8.48;3.95;;;6.40;99.90;;;;;;5012293;28;20036;-70
2021/03/14 12:03:34;;;;;;;4.30;2.63;;;6.60;99.90;;;;;;5024648;28;20474;-70
2021/03/14 12:05:59;;;;;;;5.72;2.90;;;6.50;99.90;;;;;;5027313;28;20403;-70
2021/03/14 12:08:25;;;;;;;5.72;2.83;;;6.40;99.90;;;;;;5025685;28;20025;-70
2021/03/14 12:10:51;;;;;;;4.57;2.65;;;6.40;99.90;;;;;;5032729;28;20533;-70
2021/03/14 12:13:17;;;;;;;4.65;2.92;;;6.50;99.90;;;;;;5032927;28;20537;-69
2021/03/14 12:15:42;;;;;;;5.32;2.90;;;6.60;99.90;;;;;;5032679;28;20038;-69
2021/03/14 12:18:08;;;;;;;5.00;3.70;;;6.60;99.90;;;;;;5032792;28;20034;-70
2021/03/14 12:20:33;;;;;;;5.05;3.40;;;6.50;99.90;;;;;;5019386;28;20057;-70
2021/03/14 12:22:59;;;;;;;5.40;3.58;;;6.50;99.90;;;;;;5032566;28;20022;-71
2021/03/14 12:25:25;;;;;;;5.00;3.22;;;6.40;99.90;;;;;;5027231;28;20333;-70
2021/03/14 12:27:51;;;;;;;5.75;2.80;;;6.30;99.90;;;;;;5012923;28;20369;-71
2021/03/14 12:30:17;;;;;;;6.40;2.85;;;6.20;99.90;;;;;;5011539;28;20021;-70
2021/03/14 12:32:42;;;;;;;4.82;2.40;;;6.20;99.90;;;;;;5011430;28;20543;-70
2021/03/14 12:35:09;;;;;;;6.00;3.75;;;6.20;99.90;;;;;;5007479;28;20037;-70
2021/03/14 12:37:34;;;;;;;4.95;2.92;;;6.50;99.90;;;;;;5005047;28;20026;-70
2021/03/14 12:40:00;;;;;;;3.90;2.50;;;7.40;99.90;;;;;;5012143;28;20117;-70
2021/03/14 12:42:25;;;;;;;5.07;2.35;;;7.80;99.90;;;;;;5000717;28;20026;-70
2021/03/14 12:44:51;;;;;;;3.50;2.38;;;7.60;99.90;;;;;;5028172;28;20028;-70